TimeMST,TemperatureF,Dew PointF,Humidity,Sea Level PressureIn,VisibilityMPH,Wind Direction,Wind SpeedMPH,Gust SpeedMPH,PrecipitationIn,Events,Conditions,WindDirDegrees,DateUTC
12:15 AM,44.6,10.4,25,29.90,10.0,NNW,8.1,-,N/A,,Clear,330,2012-12-13 07:15:00
12:35 AM,46.4,12.2,25,29.90,10.0,Calm,Calm,-,N/A,,Clear,0,2012-12-13 07:35:00
12:55 AM,41.0,10.4,29,29.90,10.0,Calm,Calm,-,N/A,,Clear,0,2012-12-13 07:55:00
1:15 AM,39.2,8.6,28,29.90,10.0,NW,5.8,-,N/A,,Clear,310,2012-12-13 08:15:00
1:35 AM,39.2,8.6,28,29.89,10.0,NW,6.9,-,N/A,,Clear,320,2012-12-13 08:35:00
1:55 AM,39.2,10.4,31,29.90,8.0,North,3.5,-,N/A,,Clear,10,2012-12-13 08:55:00
2:15 AM,39.2,12.2,33,29.89,10.0,Calm,Calm,-,N/A,,Clear,0,2012-12-13 09:15:00
2:35 AM,39.2,10.4,31,29.90,10.0,Calm,Calm,-,N/A,,Clear,0,2012-12-13 09:35:00
2:55 AM,41.0,14.0,33,29.90,10.0,Calm,Calm,-,N/A,,Partly Cloudy,0,2012-12-13 09:55:00
3:15 AM,39.2,12.2,33,29.89,10.0,NE,6.9,-,N/A,,Mostly Cloudy,50,2012-12-13 10:15:00
3:35 AM,42.8,14.0,31,29.89,10.0,East,6.9,-,N/A,,Unknown,80,2012-12-13 10:35:00
3:55 AM,50.0,15.8,26,29.89,10.0,East,13.8,-,N/A,,Clear,80,2012-12-13 10:55:00
4:15 AM,50.0,15.8,26,29.88,10.0,East,15.0,-,N/A,,Clear,80,2012-12-13 11:15:00
4:35 AM,50.0,15.8,26,29.88,10.0,East,12.7,-,N/A,,Clear,80,2012-12-13 11:35:00
4:55 AM,50.0,15.8,26,29.87,10.0,ENE,10.4,-,N/A,,Clear,70,2012-12-13 11:55:00
5:15 AM,50.0,15.8,26,29.87,10.0,East,9.2,-,N/A,,Clear,80,2012-12-13 12:15:00
5:35 AM,44.6,21.2,39,29.88,10.0,ESE,10.4,-,N/A,,Partly Cloudy,120,2012-12-13 12:35:00
5:55 AM,44.6,21.2,39,29.88,10.0,East,9.2,-,N/A,,Mostly Cloudy,100,2012-12-13 12:55:00
6:15 AM,46.4,19.4,34,29.88,10.0,East,10.4,-,N/A,,Partly Cloudy,90,2012-12-13 13:15:00
6:35 AM,48.2,17.6,30,29.87,10.0,East,12.7,-,N/A,,Clear,80,2012-12-13 13:35:00
6:55 AM,44.6,21.2,39,29.88,10.0,East,12.7,-,N/A,,Clear,90,2012-12-13 13:55:00
7:15 AM,48.2,19.4,32,29.88,10.0,East,10.4,-,N/A,,Clear,90,2012-12-13 14:15:00
7:35 AM,48.2,17.6,30,29.89,10.0,East,12.7,-,N/A,,Clear,80,2012-12-13 14:35:00
7:55 AM,50.0,17.6,28,29.89,10.0,East,11.5,-,N/A,,Clear,80,2012-12-13 14:55:00
8:15 AM,53.6,19.4,26,29.89,10.0,East,10.4,-,N/A,,Clear,80,2012-12-13 15:15:00
8:35 AM,55.4,23.0,29,29.90,10.0,East,10.4,-,N/A,,Clear,100,2012-12-13 15:35:00
8:55 AM,55.4,24.8,31,29.90,10.0,East,10.4,-,N/A,,Clear,100,2012-12-13 15:55:00
9:15 AM,57.2,26.6,31,29.90,10.0,East,10.4,-,N/A,,Clear,100,2012-12-13 16:15:00
9:35 AM,57.2,26.6,31,29.91,10.0,East,9.2,-,N/A,,Partly Cloudy,100,2012-12-13 16:35:00
9:55 AM,57.2,28.4,33,29.92,10.0,East,10.4,-,N/A,,Mostly Cloudy,100,2012-12-13 16:55:00
10:15 AM,59.0,24.8,27,29.93,9.0,East,11.5,-,N/A,,Mostly Cloudy,100,2012-12-13 17:15:00
10:35 AM,57.2,28.4,33,29.93,10.0,East,9.2,-,N/A,,Mostly Cloudy,100,2012-12-13 17:35:00
10:55 AM,59.0,28.4,31,29.92,10.0,East,11.5,-,N/A,,Mostly Cloudy,90,2012-12-13 17:55:00
11:15 AM,60.8,28.4,29,29.91,10.0,East,10.4,-,N/A,,Mostly Cloudy,100,2012-12-13 18:15:00
11:35 AM,60.8,28.4,29,29.91,10.0,East,9.2,-,N/A,,Overcast,100,2012-12-13 18:35:00
11:55 AM,62.6,28.4,27,29.89,10.0,East,10.4,-,N/A,,Overcast,90,2012-12-13 18:55:00
12:15 PM,62.6,30.2,30,29.89,10.0,East,9.2,-,N/A,,Mostly Cloudy,100,2012-12-13 19:15:00
12:35 PM,62.6,30.2,30,29.88,10.0,East,8.1,-,N/A,,Mostly Cloudy,100,2012-12-13 19:35:00
12:55 PM,64.4,32.0,30,29.87,5.0,East,5.8,-,N/A,,Mostly Cloudy,100,2012-12-13 19:55:00
1:15 PM,64.4,32.0,30,29.86,10.0,East,8.1,-,N/A,,Mostly Cloudy,90,2012-12-13 20:15:00
1:35 PM,64.4,30.2,28,29.85,10.0,East,8.1,-,N/A,,Mostly Cloudy,100,2012-12-13 20:35:00
1:55 PM,64.4,32.0,30,29.84,10.0,ESE,6.9,-,N/A,,Overcast,120,2012-12-13 20:55:00
2:15 PM,64.4,33.8,32,29.83,10.0,ESE,8.1,-,N/A,,Mostly Cloudy,110,2012-12-13 21:15:00
2:35 PM,66.2,35.6,32,29.82,10.0,ESE,8.1,-,N/A,,Mostly Cloudy,120,2012-12-13 21:35:00
2:55 PM,64.4,39.2,40,29.81,10.0,SE,8.1,-,N/A,,Overcast,140,2012-12-13 21:55:00
5:15 PM,62.6,48.2,59,29.77,5.0,SE,3.5,-,N/A,,Mostly Cloudy,140,2012-12-14 00:15:00
5:55 PM,59.0,48.2,67,29.76,10.0,SSE,8.1,-,N/A,,Unknown,150,2012-12-14 00:55:00
6:15 PM,59.0,48.2,67,29.76,10.0,SSE,9.2,-,N/A,,Overcast,160,2012-12-14 01:15:00
6:55 PM,57.2,48.2,72,29.74,10.0,ESE,5.8,-,N/A,,Overcast,110,2012-12-14 01:55:00
7:15 PM,57.2,46.4,67,29.73,10.0,East,8.1,-,N/A,,Overcast,90,2012-12-14 02:15:00
7:35 PM,59.0,46.4,63,29.72,10.0,East,6.9,-,N/A,,Overcast,80,2012-12-14 02:35:00
7:55 PM,59.0,46.4,63,29.71,10.0,East,10.4,-,N/A,,Overcast,80,2012-12-14 02:55:00
8:15 PM,60.8,46.4,59,29.70,10.0,East,8.1,-,N/A,,Overcast,80,2012-12-14 03:15:00
8:35 PM,60.8,46.4,59,29.70,10.0,East,9.2,-,N/A,,Overcast,100,2012-12-14 03:35:00
8:55 PM,59.0,48.2,67,29.70,10.0,East,9.2,-,N/A,,Unknown,100,2012-12-14 03:55:00
9:15 PM,59.0,48.2,67,29.69,10.0,East,9.2,-,N/A,,Overcast,90,2012-12-14 04:15:00
9:35 PM,59.0,48.2,67,29.69,10.0,East,9.2,-,N/A,,Overcast,100,2012-12-14 04:35:00
9:55 PM,57.2,48.2,72,29.69,10.0,East,11.5,-,N/A,,Overcast,100,2012-12-14 04:55:00
10:15 PM,59.0,48.2,67,29.69,10.0,East,12.7,-,N/A,,Overcast,100,2012-12-14 05:15:00
10:55 PM,59.0,48.2,67,29.68,10.0,East,13.8,-,N/A,,Overcast,80,2012-12-14 05:55:00
11:15 PM,59.0,48.2,67,29.68,10.0,East,9.2,-,N/A,,Unknown,90,2012-12-14 06:15:00
11:35 PM,57.2,48.2,72,29.68,4.0,SSE,10.4,24.2,0.05,,Overcast,160,2012-12-14 06:35:00
11:55 PM,55.4,51.8,88,29.70,1.8,South,13.8,20.7,0.14,,Unknown,170,2012-12-14 06:55:00